Green Bay — WDI3177 — position and weather

sailwx.info

Track history (hours):
 
Tides and Currents Weather Stations Pressure Air Temp Water Temp Dewpoint Dewpoint Depression Visibility Wind Speed Wind Dir Waves Ship Positions

Green Bay

Owner: Seabulk Fleet Management, Tampa, FL. More information available from US FCC via Universal Licensing System and Coast Guard Vessel Documentation Center.

Last reported at 2018-Apr-24 18:24 UTC. Time now 2018-Apr-24 18:33 UTC.
Position N 34°15' E 139°39'.

Length 199 m; draft 7.8 m.

Type: Ship. MMSI: 337969158.

Date/timePositionNaut miles runAvg speedWind from/ knotsBaromVisibWave heightAir tempDewpointWater temp
2018-Apr-24 18:24N 34°15' E 139°39'1720.4
2018-Apr-24 17:33N 34°16' E 139°18'220.6
2018-Apr-24 17:29N 34°16' E 139°16'1020.2
2018-Apr-24 17:00N 34°17' E 139°04'1119.9
2018-Apr-24 16:26N 34°18' E 138°51'819.7
2018-Apr-24 16:00N 34°19' E 138°40'1319.4
2018-Apr-24 15:20N 34°19' E 138°25'918.5
2018-Apr-24 14:53N 34°19' E 138°15'917.9
2018-Apr-24 14:24N 34°21' E 138°05'817.8
2018-Apr-24 13:58N 34°24' E 137°56'918.1
2018-Apr-24 13:28N 34°25' E 137°45'1517.8
2018-Apr-24 12:36N 34°29' E 137°27'218.3
2018-Apr-24 12:30N 34°29' E 137°25'917.2
2018-Apr-24 11:59N 34°28' E 137°14'816.1
2018-Apr-24 11:30N 34°31' E 137°05'510.5
2018-Apr-24 11:00N 34°34' E 137°00'510.5
2018-Apr-24 10:30N 34°39' E 137°01'816.6
2018-Apr-24 10:00N 34°43' E 137°10'6 5.5
2018-Apr-24 08:54N 34°49' E 137°13'0 0.0
2018-Apr-24 05:24N 34°49' E 137°13'0 0.0
2018-Apr-24 05:00N 34°49' E 137°13'0 0.0
2018-Apr-24 04:30N 34°49' E 137°13'0 0.0
2018-Apr-24 03:54N 34°49' E 137°13'0 0.0
2018-Apr-24 02:30N 34°49' E 137°13'0 0.0
2018-Apr-24 02:00N 34°49' E 137°13'0 0.0
2018-Apr-24 00:30N 34°49' E 137°13'0 0.0
2018-Apr-23 18:24N 34°49' E 137°13'0 0.0
2018-Apr-23 17:48N 34°49' E 137°13'0 0.0
2018-Apr-23 17:24N 34°49' E 137°13'0 0.0
2018-Apr-23 16:54N 34°49' E 137°13'0 0.0
2018-Apr-23 15:42N 34°49' E 137°13'0 0.0
2018-Apr-23 15:24N 34°49' E 137°13'0 0.0
2018-Apr-23 15:00N 34°49' E 137°13'0 0.0
2018-Apr-23 10:00N 34°49' E 137°13'0 0.0
2018-Apr-23 09:30N 34°49' E 137°13'0 0.0
2018-Apr-23 09:00N 34°49' E 137°13'0 0.0
2018-Apr-23 08:24N 34°49' E 137°13'0 0.0
2018-Apr-23 08:00N 34°49' E 137°13'0 0.0
2018-Apr-23 07:24N 34°49' E 137°13'0 0.0
2018-Apr-23 06:54N 34°49' E 137°13'0 0.0
2018-Apr-23 06:30N 34°49' E 137°13'0 0.0
2018-Apr-23 05:54N 34°49' E 137°13'0 0.0
2018-Apr-23 05:30N 34°49' E 137°13'0 0.0
2018-Apr-23 05:00N 34°49' E 137°13'0 0.0
2018-Apr-23 04:30N 34°49' E 137°13'0 0.0
2018-Apr-23 04:00N 34°49' E 137°13'0 0.0
2018-Apr-23 03:30N 34°49' E 137°13'0 0.0
2018-Apr-22 22:54N 34°49' E 137°13'0 0.1
2018-Apr-22 22:29N 34°49' E 137°13'1 1.6
2018-Apr-22 21:57N 34°48' E 137°13'3 7.5
2018-Apr-22 21:30N 34°45' E 137°12'0 0.4
2018-Apr-22 20:56N 34°45' E 137°12'0 0.0
2018-Apr-22 20:02N 34°45' E 137°12'0 0.0
2018-Apr-22 19:50N 34°45' E 137°12'0 0.0
2018-Apr-22 19:26N 34°45' E 137°12'0 0.0
2018-Apr-22 18:44N 34°45' E 137°12'0 0.0
2018-Apr-22 18:26N 34°45' E 137°12'0 0.0
2018-Apr-22 17:56N 34°45' E 137°12'0 0.0
2018-Apr-22 17:20N 34°45' E 137°12'0 0.0
2018-Apr-22 16:44N 34°45' E 137°12'0 0.0
2018-Apr-22 16:26N 34°45' E 137°12'0 0.0
2018-Apr-22 15:56N 34°45' E 137°12'0 0.0
2018-Apr-22 15:26N 34°45' E 137°12'0 0.0
2018-Apr-22 14:56N 34°45' E 137°12'0 0.0
2018-Apr-22 14:14N 34°45' E 137°12'0 0.0
2018-Apr-22 13:56N 34°45' E 137°12'0 0.0
2018-Apr-22 13:20N 34°45' E 137°12'0 0.1
2018-Apr-22 12:56N 34°45' E 137°12'0 0.0
2018-Apr-22 10:56N 34°45' E 137°12'0 0.0
2018-Apr-22 10:26N 34°45' E 137°12'0 0.2
2018-Apr-22 10:00N 34°45' E 137°12'4 9.0
2018-Apr-22 09:30N 34°43' E 137°07'815.8
2018-Apr-22 09:00N 34°39' E 136°58'917.5
2018-Apr-22 08:30N 34°43' E 136°49'917.2
2018-Apr-22 08:00N 34°52' E 136°46'815.1
2018-Apr-22 07:30N 34°59' E 136°49'4 8.5
2018-Apr-22 07:01N 35°02' E 136°51'0 0.5
2018-Apr-22 06:25N 35°03' E 136°51'0 0.0
2018-Apr-22 06:00N 35°03' E 136°51'0 0.0
2018-Apr-22 05:31N 35°03' E 136°51'0 0.0
2018-Apr-22 05:00N 35°03' E 136°51'0 0.0
2018-Apr-22 04:30N 35°03' E 136°51'0 0.0
2018-Apr-22 03:59N 35°03' E 136°51'0 0.0
2018-Apr-22 03:30N 35°03' E 136°51'0 0.0
2018-Apr-22 03:00N 35°03' E 136°51'0 0.0
2018-Apr-22 02:30N 35°03' E 136°51'0 0.0
2018-Apr-22 02:00N 35°03' E 136°51'0 0.0
2018-Apr-22 01:29N 35°03' E 136°51'0 0.0
2018-Apr-22 01:00N 35°03' E 136°51'0 0.0
2018-Apr-22 00:30N 35°03' E 136°51'0 0.0
2018-Apr-22 00:00N 35°03' E 136°51'0 0.0
2018-Apr-21 23:30N 35°03' E 136°51'0 0.0
2018-Apr-21 23:00N 35°03' E 136°51'0 0.0
2018-Apr-21 22:30N 35°03' E 136°51'0 0.0
2018-Apr-21 22:00N 35°03' E 136°51'0 0.0
2018-Apr-21 21:30N 35°03' E 136°51'0 0.0
2018-Apr-21 21:00N 35°03' E 136°51'0 0.0
2018-Apr-21 20:30N 35°03' E 136°51'0 0.0
2018-Apr-21 20:00N 35°03' E 136°51'0 0.0
2018-Apr-21 19:30N 35°03' E 136°51'0 0.0
2018-Apr-21 19:00N 35°03' E 136°51'0 0.0
2018-Apr-21 18:30N 35°03' E 136°51'0 0.0
2018-Apr-21 18:00N 35°03' E 136°51'0 0.0
2018-Apr-21 17:30N 35°03' E 136°51'0 0.0
2018-Apr-21 17:00N 35°03' E 136°51'0 0.0
2018-Apr-21 16:30N 35°03' E 136°51'0 0.0
2018-Apr-21 16:00N 35°03' E 136°51'0 0.0
2018-Apr-21 15:30N 35°03' E 136°51'0 0.0
2018-Apr-21 15:00N 35°03' E 136°51'0 0.0
2018-Apr-21 14:30N 35°03' E 136°51'0 0.0
2018-Apr-21 14:00N 35°03' E 136°51'0 0.0
2018-Apr-21 13:30N 35°03' E 136°51'0 0.0
2018-Apr-21 13:00N 35°03' E 136°51'0 0.0
2018-Apr-21 12:30N 35°03' E 136°51'0 0.0
2018-Apr-21 12:00N 35°03' E 136°51'0 0.0
2018-Apr-21 11:30N 35°03' E 136°51'0 0.0
2018-Apr-21 11:00N 35°03' E 136°51'0 0.0
2018-Apr-21 10:30N 35°03' E 136°51'0 0.0
2018-Apr-21 10:00N 35°03' E 136°51'0 0.0
2018-Apr-21 09:30N 35°03' E 136°51'0 0.0
2018-Apr-21 09:00N 35°03' E 136°51'0 0.0
2018-Apr-21 08:30N 35°03' E 136°51'0 0.0
2018-Apr-21 08:00N 35°03' E 136°51'0 0.0
2018-Apr-21 07:31N 35°03' E 136°51'0 0.0
2018-Apr-21 07:00N 35°03' E 136°51'0 0.0
2018-Apr-21 06:31N 35°03' E 136°51'0 0.0
2018-Apr-21 06:00N 35°03' E 136°51'0 0.0
2018-Apr-21 05:30N 35°03' E 136°51'0 0.0
2018-Apr-21 05:00N 35°03' E 136°51'0 0.0
2018-Apr-21 04:30N 35°03' E 136°51'0 0.0
2018-Apr-21 04:00N 35°03' E 136°51'0 0.0
2018-Apr-21 03:30N 35°03' E 136°51'0 0.0
2018-Apr-21 03:00N 35°03' E 136°51'0 0.0
2018-Apr-21 02:30N 35°03' E 136°51'0 0.0
2018-Apr-21 02:00N 35°03' E 136°51'0 0.0
2018-Apr-21 01:30N 35°03' E 136°51'0 0.0
2018-Apr-21 01:00N 35°03' E 136°51'0 0.0
2018-Apr-21 00:30N 35°03' E 136°51'0 0.0
2018-Apr-21 00:00N 35°03' E 136°51'0 0.0
2018-Apr-20 23:30N 35°03' E 136°51'0 0.0
2018-Apr-20 23:00N 35°03' E 136°51'0 0.0
2018-Apr-20 22:30N 35°03' E 136°51'0 0.0
2018-Apr-20 22:00N 35°03' E 136°51'0 0.0
2018-Apr-20 21:30N 35°03' E 136°51'0 0.0
2018-Apr-20 21:00N 35°03' E 136°51'0 0.0
2018-Apr-20 20:31N 35°03' E 136°51'0 0.0
2018-Apr-20 20:00N 35°03' E 136°51'0 0.0
2018-Apr-20 19:30N 35°03' E 136°51'0 0.0
2018-Apr-20 19:00N 35°03' E 136°51'0 0.0
2018-Apr-20 18:30N 35°03' E 136°51'0 0.0
2018-Apr-20 18:00N 35°03' E 136°51'0 0.0
2018-Apr-20 17:30N 35°03' E 136°51'0 0.0
2018-Apr-20 17:00N 35°03' E 136°51'0 0.0
2018-Apr-20 16:30N 35°03' E 136°51'0 0.0
2018-Apr-20 16:00N 35°03' E 136°51'0 0.0
2018-Apr-20 15:30N 35°03' E 136°51'0 0.0
2018-Apr-20 15:00N 35°03' E 136°51'0 0.0
2018-Apr-20 14:30N 35°03' E 136°51'0 0.0
2018-Apr-20 14:00N 35°03' E 136°51'0 0.0
2018-Apr-20 13:30N 35°03' E 136°51'0 0.0
2018-Apr-20 13:00N 35°03' E 136°51'0 0.0
2018-Apr-20 12:30N 35°03' E 136°51'0 0.0
2018-Apr-20 12:00N 35°03' E 136°51'0 0.0
2018-Apr-20 11:31N 35°03' E 136°51'0 0.0
2018-Apr-20 10:59N 35°03' E 136°51'0 0.0
2018-Apr-20 10:30N 35°03' E 136°51'0 0.0
2018-Apr-20 10:00N 35°03' E 136°51'0 0.0
2018-Apr-20 09:30N 35°03' E 136°51'0 0.0
2018-Apr-20 09:00N 35°03' E 136°51'0 0.0
2018-Apr-20 08:30N 35°03' E 136°51'0 0.0
2018-Apr-20 08:00N 35°03' E 136°51'0 0.0
2018-Apr-20 07:30N 35°03' E 136°51'0 0.0
2018-Apr-20 07:00N 35°03' E 136°51'0 0.0
2018-Apr-20 06:30N 35°03' E 136°51'0 0.0
2018-Apr-20 06:00N 35°03' E 136°51'0 0.6
2018-Apr-20 05:30N 35°02' E 136°51'4 7.6
2018-Apr-20 05:00N 34°59' E 136°49'612.8
2018-Apr-20 04:30N 34°53' E 136°47'816.5
2018-Apr-20 04:01N 34°45' E 136°49'916.8
2018-Apr-20 03:30N 34°38' E 136°55'713.5
2018-Apr-20 03:00N 34°33' E 137°01'510.2
2018-Apr-20 02:29N 34°29' E 137°04'2413.1
2018-Apr-20 00:38N 34°05' E 137°07'514.4
2018-Apr-20 00:17N 33°60' E 137°08'10110.2
2018-Apr-19 14:24N 33°00' E 135°31'38 9.9
2018-Apr-19 10:34N 33°29' E 135°00'112.7
2018-Apr-19 10:30N 33°29' E 134°59'1112.9
2018-Apr-19 09:41N 33°39' E 134°59'213.7
2018-Apr-19 09:31N 33°42' E 134°58'714.2
2018-Apr-19 09:00N 33°49' E 134°58'713.6
2018-Apr-19 08:31N 33°56' E 134°59'713.6
2018-Apr-19 08:01N 34°02' E 134°59'713.3
2018-Apr-19 07:30N 34°09' E 134°57'510.6
2018-Apr-19 07:00N 34°14' E 134°58'917.8
2018-Apr-19 06:30N 34°23' E 135°00'918.1
2018-Apr-19 06:00N 34°31' E 135°06'4 8.0
2018-Apr-19 05:30N 34°35' E 135°05'612.3
2018-Apr-19 05:00N 34°37' E 134°58'815.6
2018-Apr-19 04:30N 34°33' E 134°50'917.8
2018-Apr-19 04:00N 34°30' E 134°40'918.4
2018-Apr-19 03:30N 34°26' E 134°30'918.0
2018-Apr-19 03:00N 34°24' E 134°19'815.8
2018-Apr-19 02:31N 34°25' E 134°10'712.8
2018-Apr-19 01:58N 34°26' E 134°02'811.1
2018-Apr-19 01:17N 34°23' E 133°53'410.7
2018-Apr-19 00:56N 34°22' E 133°48'5 0.2
2018-Apr-17 19:29N 34°24' E 133°54'611.6
2018-Apr-17 18:59N 34°26' E 134°01'710.3
2018-Apr-17 18:19N 34°26' E 134°09'310.9
2018-Apr-17 18:01N 34°24' E 134°13'612.7
2018-Apr-17 17:30N 34°25' E 134°21'715.0
2018-Apr-17 17:00N 34°28' E 134°29'815.7
2018-Apr-17 16:30N 34°30' E 134°38'816.0
2018-Apr-17 16:00N 34°33' E 134°47'815.9
2018-Apr-17 15:31N 34°37' E 134°56'612.8
2018-Apr-17 15:00N 34°36' E 135°04'4 7.8
2018-Apr-17 14:30N 34°34' E 135°08'4 7.0
2018-Apr-17 14:00N 34°32' E 135°06'917.5
2018-Apr-17 13:30N 34°23' E 135°03'917.8
2018-Apr-17 13:00N 34°15' E 134°59'713.3
2018-Apr-17 12:31N 34°08' E 135°00'815.4
2018-Apr-17 12:00N 34°01' E 134°60'714.4
2018-Apr-17 11:31N 33°54' E 134°60'714.2
2018-Apr-17 11:00N 33°46' E 135°00'611.2
2018-Apr-17 10:29N 33°41' E 135°02'714.2
2018-Apr-17 10:00N 33°37' E 135°09'4 7.9
2018-Apr-17 09:30N 33°35' E 135°13'2 3.7
2018-Apr-17 08:59N 33°33' E 135°14'1015.0
2018-Apr-17 08:21N 33°29' E 135°24'5815.4
2018-Apr-17 04:37N 33°37' E 136°33'8420.2
2018-Apr-17 00:25N 34°12' E 138°05'1019.8
2018-Apr-16 23:55N 34°14' E 138°17'1319.2
2018-Apr-16 23:16N 34°20' E 138°30'519.0
2018-Apr-16 23:00N 34°22' E 138°36'1119.4
2018-Apr-16 22:26N 34°26' E 138°48'819.5
2018-Apr-16 22:01N 34°30' E 138°57'1020.1
2018-Apr-16 21:30N 34°38' E 139°05'1020.3
2018-Apr-16 21:00N 34°46' E 139°13'1019.3
2018-Apr-16 20:30N 34°52' E 139°21'918.8
2018-Apr-16 20:01N 34°59' E 139°30'1019.3
2018-Apr-16 19:30N 35°04' E 139°40'816.7
2018-Apr-16 19:00N 35°11' E 139°45'510.8
2018-Apr-16 18:30N 35°16' E 139°46'612.2
2018-Apr-16 18:00N 35°21' E 139°42'510.4
2018-Apr-16 17:30N 35°27' E 139°42'3 4.8
2018-Apr-16 16:58N 35°28' E 139°39'0 0.0
2018-Apr-16 16:28N 35°28' E 139°39'0 0.0
2018-Apr-16 15:58N 35°28' E 139°39'0 0.0
2018-Apr-16 15:28N 35°28' E 139°39'0 0.0
2018-Apr-16 14:58N 35°28' E 139°39'0 0.0
2018-Apr-16 14:28N 35°28' E 139°39'0 0.0
2018-Apr-16 13:58N 35°28' E 139°39'0 0.0
2018-Apr-16 13:28N 35°28' E 139°39'0 0.0
2018-Apr-16 12:58N 35°28' E 139°39'0 0.0
2018-Apr-16 12:28N 35°28' E 139°39'0 0.0
2018-Apr-16 11:58N 35°28' E 139°39'0 0.0
2018-Apr-16 11:28N 35°28' E 139°39'0 0.0
2018-Apr-16 10:58N 35°28' E 139°39'0 0.0
2018-Apr-16 10:28N 35°28' E 139°39'0 0.0
2018-Apr-16 09:58N 35°28' E 139°39'0 0.0
2018-Apr-16 09:28N 35°28' E 139°39'0 0.0
2018-Apr-16 08:58N 35°28' E 139°39'0 0.0
2018-Apr-16 08:28N 35°28' E 139°39'0 0.0
2018-Apr-16 07:58N 35°28' E 139°39'0 0.0
2018-Apr-16 07:28N 35°28' E 139°39'0 0.0
2018-Apr-16 06:58N 35°28' E 139°39'0 0.0
2018-Apr-16 06:28N 35°28' E 139°39'0 0.0
2018-Apr-16 05:58N 35°28' E 139°39'0 0.0
2018-Apr-16 05:28N 35°28' E 139°39'0 0.0
2018-Apr-16 05:01N 35°28' E 139°39'0 0.0
2018-Apr-16 04:31N 35°28' E 139°39'0 0.0
2018-Apr-16 04:01N 35°28' E 139°39'0 0.0
2018-Apr-16 03:30N 35°28' E 139°39'0 0.0
2018-Apr-16 03:01N 35°28' E 139°39'0 0.0
2018-Apr-16 02:30N 35°28' E 139°39'0 0.0
2018-Apr-16 02:01N 35°28' E 139°39'0 0.0
2018-Apr-16 01:31N 35°28' E 139°39'0 0.0
2018-Apr-16 01:01N 35°28' E 139°39'0 0.0
2018-Apr-16 00:31N 35°28' E 139°39'0 0.0
2018-Apr-16 00:01N 35°28' E 139°39'0 0.0
2018-Apr-15 23:31N 35°28' E 139°39'0 0.1
2018-Apr-15 23:01N 35°28' E 139°39'3 5.0
2018-Apr-15 22:31N 35°27' E 139°42'5 9.3
2018-Apr-15 22:01N 35°22' E 139°43'611.9
2018-Apr-15 21:31N 35°17' E 139°46'510.9
2018-Apr-15 21:01N 35°11' E 139°47'3 6.8
2018-Apr-15 20:30N 35°08' E 139°46'612.9
2018-Apr-15 20:01N 35°02' E 139°43'713.8
2018-Apr-15 19:30N 34°55' E 139°41'713.9
2018-Apr-15 19:00N 34°48' E 139°41'714.7
2018-Apr-15 18:30N 34°41' E 139°40'713.6
2018-Apr-15 17:58N 34°34' E 139°43'613.2
2018-Apr-15 17:30N 34°29' E 139°48'1513.7
2018-Apr-15 16:26N 34°15' E 139°52'54 7.0
2018-Apr-15 08:40N 33°51' E 138°54'  
Track history (hours):
 
Tides and Currents Weather Stations Pressure Air Temp Water Temp Dewpoint Dewpoint Depression Visibility Wind Speed Wind Dir Waves Ship Positions

Green Bay

Owner: Seabulk Fleet Management, Tampa, FL. More information available from US FCC via Universal Licensing System and Coast Guard Vessel Documentation Center.

Last reported at 2018-Apr-24 18:24 UTC. Time now 2018-Apr-24 18:33 UTC.
Position N 34°15' E 139°39'.

Length 199 m; draft 7.8 m.

Type: Ship. MMSI: 337969158.

Date/timePositionNaut miles runAvg speedWind from/ knotsBaromVisibWave heightAir tempDewpointWater temp
2018-Apr-24 18:24N 34°15' E 139°39'1720.4
2018-Apr-24 17:33N 34°16' E 139°18'220.6
2018-Apr-24 17:29N 34°16' E 139°16'1020.2
2018-Apr-24 17:00N 34°17' E 139°04'1119.9
2018-Apr-24 16:26N 34°18' E 138°51'819.7
2018-Apr-24 16:00N 34°19' E 138°40'1319.4
2018-Apr-24 15:20N 34°19' E 138°25'918.5
2018-Apr-24 14:53N 34°19' E 138°15'917.9
2018-Apr-24 14:24N 34°21' E 138°05'817.8
2018-Apr-24 13:58N 34°24' E 137°56'918.1
2018-Apr-24 13:28N 34°25' E 137°45'1517.8
2018-Apr-24 12:36N 34°29' E 137°27'218.3
2018-Apr-24 12:30N 34°29' E 137°25'917.2
2018-Apr-24 11:59N 34°28' E 137°14'816.1
2018-Apr-24 11:30N 34°31' E 137°05'510.5
2018-Apr-24 11:00N 34°34' E 137°00'510.5
2018-Apr-24 10:30N 34°39' E 137°01'816.6
2018-Apr-24 10:00N 34°43' E 137°10'6 5.5
2018-Apr-24 08:54N 34°49' E 137°13'0 0.0
2018-Apr-24 05:24N 34°49' E 137°13'0 0.0
2018-Apr-24 05:00N 34°49' E 137°13'0 0.0
2018-Apr-24 04:30N 34°49' E 137°13'0 0.0
2018-Apr-24 03:54N 34°49' E 137°13'0 0.0
2018-Apr-24 02:30N 34°49' E 137°13'0 0.0
2018-Apr-24 02:00N 34°49' E 137°13'0 0.0
2018-Apr-24 00:30N 34°49' E 137°13'0 0.0
2018-Apr-23 18:24N 34°49' E 137°13'0 0.0
2018-Apr-23 17:48N 34°49' E 137°13'0 0.0
2018-Apr-23 17:24N 34°49' E 137°13'0 0.0
2018-Apr-23 16:54N 34°49' E 137°13'0 0.0
2018-Apr-23 15:42N 34°49' E 137°13'0 0.0
2018-Apr-23 15:24N 34°49' E 137°13'0 0.0
2018-Apr-23 15:00N 34°49' E 137°13'0 0.0
2018-Apr-23 10:00N 34°49' E 137°13'0 0.0
2018-Apr-23 09:30N 34°49' E 137°13'0 0.0
2018-Apr-23 09:00N 34°49' E 137°13'0 0.0
2018-Apr-23 08:24N 34°49' E 137°13'0 0.0
2018-Apr-23 08:00N 34°49' E 137°13'0 0.0
2018-Apr-23 07:24N 34°49' E 137°13'0 0.0
2018-Apr-23 06:54N 34°49' E 137°13'0 0.0
2018-Apr-23 06:30N 34°49' E 137°13'0 0.0
2018-Apr-23 05:54N 34°49' E 137°13'0 0.0
2018-Apr-23 05:30N 34°49' E 137°13'0 0.0
2018-Apr-23 05:00N 34°49' E 137°13'0 0.0
2018-Apr-23 04:30N 34°49' E 137°13'0 0.0
2018-Apr-23 04:00N 34°49' E 137°13'0 0.0
2018-Apr-23 03:30N 34°49' E 137°13'0 0.0
2018-Apr-22 22:54N 34°49' E 137°13'0 0.1
2018-Apr-22 22:29N 34°49' E 137°13'1 1.6
2018-Apr-22 21:57N 34°48' E 137°13'3 7.5
2018-Apr-22 21:30N 34°45' E 137°12'0 0.4
2018-Apr-22 20:56N 34°45' E 137°12'0 0.0
2018-Apr-22 20:02N 34°45' E 137°12'0 0.0
2018-Apr-22 19:50N 34°45' E 137°12'0 0.0
2018-Apr-22 19:26N 34°45' E 137°12'0 0.0
2018-Apr-22 18:44N 34°45' E 137°12'0 0.0
2018-Apr-22 18:26N 34°45' E 137°12'0 0.0
2018-Apr-22 17:56N 34°45' E 137°12'0 0.0
2018-Apr-22 17:20N 34°45' E 137°12'0 0.0
2018-Apr-22 16:44N 34°45' E 137°12'0 0.0
2018-Apr-22 16:26N 34°45' E 137°12'0 0.0
2018-Apr-22 15:56N 34°45' E 137°12'0 0.0
2018-Apr-22 15:26N 34°45' E 137°12'0 0.0
2018-Apr-22 14:56N 34°45' E 137°12'0 0.0
2018-Apr-22 14:14N 34°45' E 137°12'0 0.0
2018-Apr-22 13:56N 34°45' E 137°12'0 0.0
2018-Apr-22 13:20N 34°45' E 137°12'0 0.1
2018-Apr-22 12:56N 34°45' E 137°12'0 0.0
2018-Apr-22 10:56N 34°45' E 137°12'0 0.0
2018-Apr-22 10:26N 34°45' E 137°12'0 0.2
2018-Apr-22 10:00N 34°45' E 137°12'4 9.0
2018-Apr-22 09:30N 34°43' E 137°07'815.8
2018-Apr-22 09:00N 34°39' E 136°58'917.5
2018-Apr-22 08:30N 34°43' E 136°49'917.2
2018-Apr-22 08:00N 34°52' E 136°46'815.1
2018-Apr-22 07:30N 34°59' E 136°49'4 8.5
2018-Apr-22 07:01N 35°02' E 136°51'0 0.5
2018-Apr-22 06:25N 35°03' E 136°51'0 0.0
2018-Apr-22 06:00N 35°03' E 136°51'0 0.0
2018-Apr-22 05:31N 35°03' E 136°51'0 0.0
2018-Apr-22 05:00N 35°03' E 136°51'0 0.0
2018-Apr-22 04:30N 35°03' E 136°51'0 0.0
2018-Apr-22 03:59N 35°03' E 136°51'0 0.0
2018-Apr-22 03:30N 35°03' E 136°51'0 0.0
2018-Apr-22 03:00N 35°03' E 136°51'0 0.0
2018-Apr-22 02:30N 35°03' E 136°51'0 0.0
2018-Apr-22 02:00N 35°03' E 136°51'0 0.0
2018-Apr-22 01:29N 35°03' E 136°51'0 0.0
2018-Apr-22 01:00N 35°03' E 136°51'0 0.0
2018-Apr-22 00:30N 35°03' E 136°51'0 0.0
2018-Apr-22 00:00N 35°03' E 136°51'0 0.0
2018-Apr-21 23:30N 35°03' E 136°51'0 0.0
2018-Apr-21 23:00N 35°03' E 136°51'0 0.0
2018-Apr-21 22:30N 35°03' E 136°51'0 0.0
2018-Apr-21 22:00N 35°03' E 136°51'0 0.0
2018-Apr-21 21:30N 35°03' E 136°51'0 0.0
2018-Apr-21 21:00N 35°03' E 136°51'0 0.0
2018-Apr-21 20:30N 35°03' E 136°51'0 0.0
2018-Apr-21 20:00N 35°03' E 136°51'0 0.0
2018-Apr-21 19:30N 35°03' E 136°51'0 0.0
2018-Apr-21 19:00N 35°03' E 136°51'0 0.0
2018-Apr-21 18:30N 35°03' E 136°51'0 0.0
2018-Apr-21 18:00N 35°03' E 136°51'0 0.0
2018-Apr-21 17:30N 35°03' E 136°51'0 0.0
2018-Apr-21 17:00N 35°03' E 136°51'0 0.0
2018-Apr-21 16:30N 35°03' E 136°51'0 0.0
2018-Apr-21 16:00N 35°03' E 136°51'0 0.0
2018-Apr-21 15:30N 35°03' E 136°51'0 0.0
2018-Apr-21 15:00N 35°03' E 136°51'0 0.0
2018-Apr-21 14:30N 35°03' E 136°51'0 0.0
2018-Apr-21 14:00N 35°03' E 136°51'0 0.0
2018-Apr-21 13:30N 35°03' E 136°51'0 0.0
2018-Apr-21 13:00N 35°03' E 136°51'0 0.0
2018-Apr-21 12:30N 35°03' E 136°51'0 0.0
2018-Apr-21 12:00N 35°03' E 136°51'0 0.0
2018-Apr-21 11:30N 35°03' E 136°51'0 0.0
2018-Apr-21 11:00N 35°03' E 136°51'0 0.0
2018-Apr-21 10:30N 35°03' E 136°51'0 0.0
2018-Apr-21 10:00N 35°03' E 136°51'0 0.0
2018-Apr-21 09:30N 35°03' E 136°51'0 0.0
2018-Apr-21 09:00N 35°03' E 136°51'0 0.0
2018-Apr-21 08:30N 35°03' E 136°51'0 0.0
2018-Apr-21 08:00N 35°03' E 136°51'0 0.0
2018-Apr-21 07:31N 35°03' E 136°51'0 0.0
2018-Apr-21 07:00N 35°03' E 136°51'0 0.0
2018-Apr-21 06:31N 35°03' E 136°51'0 0.0
2018-Apr-21 06:00N 35°03' E 136°51'0 0.0
2018-Apr-21 05:30N 35°03' E 136°51'0 0.0
2018-Apr-21 05:00N 35°03' E 136°51'0 0.0
2018-Apr-21 04:30N 35°03' E 136°51'0 0.0
2018-Apr-21 04:00N 35°03' E 136°51'0 0.0
2018-Apr-21 03:30N 35°03' E 136°51'0 0.0
2018-Apr-21 03:00N 35°03' E 136°51'0 0.0
2018-Apr-21 02:30N 35°03' E 136°51'0 0.0
2018-Apr-21 02:00N 35°03' E 136°51'0 0.0
2018-Apr-21 01:30N 35°03' E 136°51'0 0.0
2018-Apr-21 01:00N 35°03' E 136°51'0 0.0
2018-Apr-21 00:30N 35°03' E 136°51'0 0.0
2018-Apr-21 00:00N 35°03' E 136°51'0 0.0
2018-Apr-20 23:30N 35°03' E 136°51'0 0.0
2018-Apr-20 23:00N 35°03' E 136°51'0 0.0
2018-Apr-20 22:30N 35°03' E 136°51'0 0.0
2018-Apr-20 22:00N 35°03' E 136°51'0 0.0
2018-Apr-20 21:30N 35°03' E 136°51'0 0.0
2018-Apr-20 21:00N 35°03' E 136°51'0 0.0
2018-Apr-20 20:31N 35°03' E 136°51'0 0.0
2018-Apr-20 20:00N 35°03' E 136°51'0 0.0
2018-Apr-20 19:30N 35°03' E 136°51'0 0.0
2018-Apr-20 19:00N 35°03' E 136°51'0 0.0
2018-Apr-20 18:30N 35°03' E 136°51'0 0.0
2018-Apr-20 18:00N 35°03' E 136°51'0 0.0
2018-Apr-20 17:30N 35°03' E 136°51'0 0.0
2018-Apr-20 17:00N 35°03' E 136°51'0 0.0
2018-Apr-20 16:30N 35°03' E 136°51'0 0.0
2018-Apr-20 16:00N 35°03' E 136°51'0 0.0
2018-Apr-20 15:30N 35°03' E 136°51'0 0.0
2018-Apr-20 15:00N 35°03' E 136°51'0 0.0
2018-Apr-20 14:30N 35°03' E 136°51'0 0.0
2018-Apr-20 14:00N 35°03' E 136°51'0 0.0
2018-Apr-20 13:30N 35°03' E 136°51'0 0.0
2018-Apr-20 13:00N 35°03' E 136°51'0 0.0
2018-Apr-20 12:30N 35°03' E 136°51'0 0.0
2018-Apr-20 12:00N 35°03' E 136°51'0 0.0
2018-Apr-20 11:31N 35°03' E 136°51'0 0.0
2018-Apr-20 10:59N 35°03' E 136°51'0 0.0
2018-Apr-20 10:30N 35°03' E 136°51'0 0.0
2018-Apr-20 10:00N 35°03' E 136°51'0 0.0
2018-Apr-20 09:30N 35°03' E 136°51'0 0.0
2018-Apr-20 09:00N 35°03' E 136°51'0 0.0
2018-Apr-20 08:30N 35°03' E 136°51'0 0.0
2018-Apr-20 08:00N 35°03' E 136°51'0 0.0
2018-Apr-20 07:30N 35°03' E 136°51'0 0.0
2018-Apr-20 07:00N 35°03' E 136°51'0 0.0
2018-Apr-20 06:30N 35°03' E 136°51'0 0.0
2018-Apr-20 06:00N 35°03' E 136°51'0 0.6
2018-Apr-20 05:30N 35°02' E 136°51'4 7.6
2018-Apr-20 05:00N 34°59' E 136°49'612.8
2018-Apr-20 04:30N 34°53' E 136°47'816.5
2018-Apr-20 04:01N 34°45' E 136°49'916.8
2018-Apr-20 03:30N 34°38' E 136°55'713.5
2018-Apr-20 03:00N 34°33' E 137°01'510.2
2018-Apr-20 02:29N 34°29' E 137°04'2413.1
2018-Apr-20 00:38N 34°05' E 137°07'514.4
2018-Apr-20 00:17N 33°60' E 137°08'10110.2
2018-Apr-19 14:24N 33°00' E 135°31'38 9.9
2018-Apr-19 10:34N 33°29' E 135°00'112.7
2018-Apr-19 10:30N 33°29' E 134°59'1112.9
2018-Apr-19 09:41N 33°39' E 134°59'213.7
2018-Apr-19 09:31N 33°42' E 134°58'714.2
2018-Apr-19 09:00N 33°49' E 134°58'713.6
2018-Apr-19 08:31N 33°56' E 134°59'713.6
2018-Apr-19 08:01N 34°02' E 134°59'713.3
2018-Apr-19 07:30N 34°09' E 134°57'510.6
2018-Apr-19 07:00N 34°14' E 134°58'917.8
2018-Apr-19 06:30N 34°23' E 135°00'918.1
2018-Apr-19 06:00N 34°31' E 135°06'4 8.0
2018-Apr-19 05:30N 34°35' E 135°05'612.3
2018-Apr-19 05:00N 34°37' E 134°58'815.6
2018-Apr-19 04:30N 34°33' E 134°50'917.8
2018-Apr-19 04:00N 34°30' E 134°40'918.4
2018-Apr-19 03:30N 34°26' E 134°30'918.0
2018-Apr-19 03:00N 34°24' E 134°19'815.8
2018-Apr-19 02:31N 34°25' E 134°10'712.8
2018-Apr-19 01:58N 34°26' E 134°02'811.1
2018-Apr-19 01:17N 34°23' E 133°53'410.7
2018-Apr-19 00:56N 34°22' E 133°48'5 0.2
2018-Apr-17 19:29N 34°24' E 133°54'611.6
2018-Apr-17 18:59N 34°26' E 134°01'710.3
2018-Apr-17 18:19N 34°26' E 134°09'310.9
2018-Apr-17 18:01N 34°24' E 134°13'612.7
2018-Apr-17 17:30N 34°25' E 134°21'715.0
2018-Apr-17 17:00N 34°28' E 134°29'815.7
2018-Apr-17 16:30N 34°30' E 134°38'816.0
2018-Apr-17 16:00N 34°33' E 134°47'815.9
2018-Apr-17 15:31N 34°37' E 134°56'612.8
2018-Apr-17 15:00N 34°36' E 135°04'4 7.8
2018-Apr-17 14:30N 34°34' E 135°08'4 7.0
2018-Apr-17 14:00N 34°32' E 135°06'917.5
2018-Apr-17 13:30N 34°23' E 135°03'917.8
2018-Apr-17 13:00N 34°15' E 134°59'713.3
2018-Apr-17 12:31N 34°08' E 135°00'815.4
2018-Apr-17 12:00N 34°01' E 134°60'714.4
2018-Apr-17 11:31N 33°54' E 134°60'714.2
2018-Apr-17 11:00N 33°46' E 135°00'611.2
2018-Apr-17 10:29N 33°41' E 135°02'714.2
2018-Apr-17 10:00N 33°37' E 135°09'4 7.9
2018-Apr-17 09:30N 33°35' E 135°13'2 3.7
2018-Apr-17 08:59N 33°33' E 135°14'1015.0
2018-Apr-17 08:21N 33°29' E 135°24'5815.4
2018-Apr-17 04:37N 33°37' E 136°33'8420.2
2018-Apr-17 00:25N 34°12' E 138°05'1019.8
2018-Apr-16 23:55N 34°14' E 138°17'1319.2
2018-Apr-16 23:16N 34°20' E 138°30'519.0
2018-Apr-16 23:00N 34°22' E 138°36'1119.4
2018-Apr-16 22:26N 34°26' E 138°48'819.5
2018-Apr-16 22:01N 34°30' E 138°57'1020.1
2018-Apr-16 21:30N 34°38' E 139°05'1020.3
2018-Apr-16 21:00N 34°46' E 139°13'1019.3
2018-Apr-16 20:30N 34°52' E 139°21'918.8
2018-Apr-16 20:01N 34°59' E 139°30'1019.3
2018-Apr-16 19:30N 35°04' E 139°40'816.7
2018-Apr-16 19:00N 35°11' E 139°45'510.8
2018-Apr-16 18:30N 35°16' E 139°46'612.2
2018-Apr-16 18:00N 35°21' E 139°42'510.4
2018-Apr-16 17:30N 35°27' E 139°42'3 4.8
2018-Apr-16 16:58N 35°28' E 139°39'0 0.0
2018-Apr-16 16:28N 35°28' E 139°39'0 0.0
2018-Apr-16 15:58N 35°28' E 139°39'0 0.0
2018-Apr-16 15:28N 35°28' E 139°39'0 0.0
2018-Apr-16 14:58N 35°28' E 139°39'0 0.0
2018-Apr-16 14:28N 35°28' E 139°39'0 0.0
2018-Apr-16 13:58N 35°28' E 139°39'0 0.0
2018-Apr-16 13:28N 35°28' E 139°39'0 0.0
2018-Apr-16 12:58N 35°28' E 139°39'0 0.0
2018-Apr-16 12:28N 35°28' E 139°39'0 0.0
2018-Apr-16 11:58N 35°28' E 139°39'0 0.0
2018-Apr-16 11:28N 35°28' E 139°39'0 0.0
2018-Apr-16 10:58N 35°28' E 139°39'0 0.0
2018-Apr-16 10:28N 35°28' E 139°39'0 0.0
2018-Apr-16 09:58N 35°28' E 139°39'0 0.0
2018-Apr-16 09:28N 35°28' E 139°39'0 0.0
2018-Apr-16 08:58N 35°28' E 139°39'0 0.0
2018-Apr-16 08:28N 35°28' E 139°39'0 0.0
2018-Apr-16 07:58N 35°28' E 139°39'0 0.0
2018-Apr-16 07:28N 35°28' E 139°39'0 0.0
2018-Apr-16 06:58N 35°28' E 139°39'0 0.0
2018-Apr-16 06:28N 35°28' E 139°39'0 0.0
2018-Apr-16 05:58N 35°28' E 139°39'0 0.0
2018-Apr-16 05:28N 35°28' E 139°39'0 0.0
2018-Apr-16 05:01N 35°28' E 139°39'0 0.0
2018-Apr-16 04:31N 35°28' E 139°39'0 0.0
2018-Apr-16 04:01N 35°28' E 139°39'0 0.0
2018-Apr-16 03:30N 35°28' E 139°39'0 0.0
2018-Apr-16 03:01N 35°28' E 139°39'0 0.0
2018-Apr-16 02:30N 35°28' E 139°39'0 0.0
2018-Apr-16 02:01N 35°28' E 139°39'0 0.0
2018-Apr-16 01:31N 35°28' E 139°39'0 0.0
2018-Apr-16 01:01N 35°28' E 139°39'0 0.0
2018-Apr-16 00:31N 35°28' E 139°39'0 0.0
2018-Apr-16 00:01N 35°28' E 139°39'0 0.0
2018-Apr-15 23:31N 35°28' E 139°39'0 0.1
2018-Apr-15 23:01N 35°28' E 139°39'3 5.0
2018-Apr-15 22:31N 35°27' E 139°42'5 9.3
2018-Apr-15 22:01N 35°22' E 139°43'611.9
2018-Apr-15 21:31N 35°17' E 139°46'510.9
2018-Apr-15 21:01N 35°11' E 139°47'3 6.8
2018-Apr-15 20:30N 35°08' E 139°46'612.9
2018-Apr-15 20:01N 35°02' E 139°43'713.8
2018-Apr-15 19:30N 34°55' E 139°41'713.9
2018-Apr-15 19:00N 34°48' E 139°41'714.7
2018-Apr-15 18:30N 34°41' E 139°40'713.6
2018-Apr-15 17:58N 34°34' E 139°43'613.2
2018-Apr-15 17:30N 34°29' E 139°48'1513.7
2018-Apr-15 16:26N 34°15' E 139°52'54 7.0
2018-Apr-15 08:40N 33°51' E 138°54'  

Dump ship's entire track history